createdAt,value
2023-03-17T00:01:44.773Z,6.73
2023-03-17T00:04:12.752Z,6.30
2023-03-17T00:06:40.285Z,6.37
2023-03-17T00:09:14.558Z,5.20
2023-03-17T00:11:42.117Z,7.65
2023-03-17T00:14:09.178Z,6.23
2023-03-17T00:16:42.227Z,5.93
2023-03-17T00:19:31.331Z,9.13
2023-03-17T00:21:59.861Z,8.63
2023-03-17T00:24:27.322Z,7.67
2023-03-17T00:26:54.105Z,5.23
2023-03-17T00:29:20.699Z,6.90
2023-03-17T00:31:47.450Z,6.27
2023-03-17T00:34:18.413Z,9.27
2023-03-17T00:36:50.700Z,8.33
2023-03-17T00:39:18.429Z,7.50
2023-03-17T00:44:12.108Z,6.60
2023-03-17T00:46:41.331Z,6.40
2023-03-17T00:51:43.789Z,7.57
2023-03-17T00:54:11.888Z,8.57
2023-03-17T00:56:39.899Z,6.03
2023-03-17T00:59:30.527Z,5.70
2023-03-17T01:01:57.508Z,8.73
2023-03-17T01:04:24.242Z,7.13
2023-03-17T01:06:52.148Z,5.43
2023-03-17T01:09:20.260Z,7.23
2023-03-17T01:11:48.183Z,7.30
2023-03-17T01:14:15.191Z,6.57
2023-03-17T01:16:42.315Z,5.90
2023-03-17T01:19:12.037Z,5.57
2023-03-17T01:21:39.081Z,7.20
2023-03-17T01:24:06.406Z,7.32
2023-03-17T01:26:32.971Z,6.33
2023-03-17T01:28:59.958Z,9.07
2023-03-17T01:31:26.583Z,9.07
2023-03-17T01:33:53.195Z,6.33
2023-03-17T01:36:20.555Z,5.97
2023-03-17T01:38:50.615Z,7.70
2023-03-17T01:41:18.871Z,6.33
2023-03-17T01:43:45.480Z,6.90
2023-03-17T01:46:21.068Z,6.10
2023-03-17T01:48:50.950Z,6.80
2023-03-17T01:51:47.876Z,8.10
2023-03-17T01:54:23.199Z,6.07
2023-03-17T01:56:52.176Z,7.73
2023-03-17T01:59:23.673Z,5.73
2023-03-17T02:01:55.564Z,5.93
2023-03-17T02:04:22.832Z,6.30
2023-03-17T02:06:57.890Z,5.37
2023-03-17T02:09:26.329Z,6.23
2023-03-17T02:11:53.363Z,5.23
2023-03-17T02:14:20.384Z,6.90
2023-03-17T02:16:47.576Z,6.60
2023-03-17T02:19:14.165Z,5.60
2023-03-17T02:21:43.167Z,6.70
2023-03-17T02:24:17.539Z,7.23
2023-03-17T02:26:46.957Z,6.43
2023-03-17T02:29:14.022Z,6.57
2023-03-17T02:31:40.915Z,5.67
2023-03-17T02:34:07.724Z,6.23
2023-03-17T02:36:34.682Z,6.17
2023-03-17T02:39:01.505Z,7.07
2023-03-17T02:41:28.638Z,7.20
2023-03-17T02:43:56.840Z,5.80
2023-03-17T02:46:23.585Z,8.67
2023-03-17T02:48:50.226Z,6.57
2023-03-17T02:51:16.834Z,7.87
2023-03-17T02:53:43.517Z,8.07
2023-03-17T02:56:10.500Z,6.77
2023-03-17T02:58:37.096Z,6.90
2023-03-17T03:01:04.017Z,6.37
2023-03-17T03:03:31.176Z,6.23
2023-03-17T03:05:58.351Z,6.13
2023-03-17T03:08:26.116Z,6.17
2023-03-17T03:10:53.100Z,7.53
2023-03-17T03:13:19.672Z,9.10
2023-03-17T03:15:47.563Z,5.77
2023-03-17T03:18:14.467Z,9.17
2023-03-17T03:20:44.416Z,7.23
2023-03-17T03:23:11.810Z,6.23
2023-03-17T03:25:39.116Z,7.63
2023-03-17T03:28:08.047Z,7.57
2023-03-17T03:30:36.482Z,15.73
2023-03-17T03:33:03.873Z,7.47
2023-03-17T03:35:30.745Z,7.87
2023-03-17T03:37:57.603Z,8.07
2023-03-17T03:40:25.331Z,8.07
2023-03-17T03:42:51.901Z,7.97
2023-03-17T03:45:18.815Z,8.43
2023-03-17T03:47:45.561Z,8.73
2023-03-17T03:50:13.148Z,9.20
2023-03-17T03:52:39.820Z,7.20
2023-03-17T03:55:07.252Z,7.53
2023-03-17T03:57:33.885Z,7.13
2023-03-17T04:00:00.598Z,8.23
2023-03-17T04:02:27.469Z,9.23
2023-03-17T04:04:54.233Z,7.80
2023-03-17T04:07:21.369Z,7.73
2023-03-17T04:09:49.258Z,8.90
2023-03-17T04:12:17.207Z,9.67
2023-03-17T04:14:44.604Z,8.50
2023-03-17T04:17:11.993Z,6.93
2023-03-17T04:19:39.141Z,6.80
2023-03-17T04:22:07.429Z,10.53
2023-03-17T04:24:34.903Z,9.53
2023-03-17T04:27:04.203Z,7.20
2023-03-17T04:29:32.115Z,7.40
2023-03-17T04:31:58.745Z,7.85
2023-03-17T04:34:25.858Z,8.13
2023-03-17T04:36:52.463Z,9.03
2023-03-17T04:39:19.141Z,11.90
2023-03-17T04:41:46.427Z,8.67
2023-03-17T04:44:13.054Z,8.33
2023-03-17T04:46:39.662Z,9.23
2023-03-17T04:49:06.920Z,9.50
2023-03-17T04:51:33.638Z,8.63
2023-03-17T04:54:01.393Z,8.03
2023-03-17T04:56:30.501Z,9.90
2023-03-17T04:58:58.244Z,7.23
2023-03-17T05:01:24.914Z,10.90
2023-03-17T05:03:51.794Z,8.57
2023-03-17T05:06:18.430Z,10.63
2023-03-17T05:08:45.330Z,8.67
2023-03-17T05:11:12.896Z,8.93
2023-03-17T05:13:40.961Z,9.00
2023-03-17T05:16:08.769Z,8.50
2023-03-17T05:18:36.449Z,8.80
2023-03-17T05:21:04.628Z,9.43
2023-03-17T05:23:31.289Z,9.73
2023-03-17T05:25:58.270Z,7.70
2023-03-17T05:28:24.984Z,8.63
2023-03-17T05:30:51.927Z,7.37
2023-03-17T05:33:18.856Z,8.53
2023-03-17T05:35:46.342Z,8.00
2023-03-17T05:38:14.307Z,7.07
2023-03-17T05:40:41.145Z,7.83
2023-03-17T05:43:07.771Z,10.67
2023-03-17T05:45:34.695Z,8.85
2023-03-17T05:48:01.357Z,9.30
2023-03-17T05:50:28.046Z,8.60
2023-03-17T05:52:55.005Z,8.67
2023-03-17T05:55:22.438Z,7.63
2023-03-17T05:57:49.137Z,8.53
2023-03-17T06:00:16.247Z,8.87
2023-03-17T06:02:43.089Z,8.87
2023-03-17T06:05:10.111Z,8.27
2023-03-17T06:07:50.949Z,9.43
2023-03-17T06:10:19.999Z,11.47
2023-03-17T06:12:47.239Z,9.00
2023-03-17T06:15:13.848Z,8.00
2023-03-17T06:17:40.440Z,10.97
2023-03-17T06:20:07.574Z,8.13
2023-03-17T06:22:34.158Z,8.20
2023-03-17T06:25:01.058Z,10.43
2023-03-17T06:27:27.726Z,7.23
2023-03-17T06:29:54.416Z,7.37
2023-03-17T06:32:21.357Z,8.23
2023-03-17T06:34:48.250Z,9.17
2023-03-17T06:37:15.347Z,8.50
2023-03-17T06:39:42.247Z,9.73
2023-03-17T06:42:08.991Z,8.70
2023-03-17T06:44:36.320Z,9.50
2023-03-17T06:47:02.935Z,8.83
2023-03-17T06:49:29.501Z,11.77
2023-03-17T06:52:00.406Z,10.10
2023-03-17T06:54:29.752Z,9.87
2023-03-17T06:56:58.972Z,9.63
2023-03-17T06:59:26.048Z,9.13
2023-03-17T07:01:53.196Z,7.53
2023-03-17T07:04:20.886Z,9.03
2023-03-17T07:06:47.924Z,7.80
2023-03-17T07:09:15.545Z,12.10
2023-03-17T07:11:47.904Z,10.43
2023-03-17T07:14:17.148Z,9.13
2023-03-17T07:16:48.318Z,9.40
2023-03-17T07:19:16.632Z,10.50
2023-03-17T07:21:46.889Z,8.87
2023-03-17T07:24:16.185Z,9.57
2023-03-17T07:26:42.732Z,11.40
2023-03-17T07:29:09.655Z,10.30
2023-03-17T07:31:38.439Z,10.83
2023-03-17T07:34:06.486Z,13.10
2023-03-17T07:36:33.540Z,7.77
2023-03-17T07:39:01.447Z,7.03
2023-03-17T07:41:28.382Z,7.23
2023-03-17T07:43:55.038Z,10.27
2023-03-17T07:46:21.928Z,9.90
2023-03-17T07:48:48.897Z,7.00
2023-03-17T07:51:18.924Z,11.07
2023-03-17T07:53:46.395Z,7.90
2023-03-17T07:56:13.225Z,10.80
2023-03-17T07:58:40.280Z,9.90
2023-03-17T08:01:08.393Z,6.67
2023-03-17T08:03:35.368Z,6.83
2023-03-17T08:06:03.745Z,8.20
2023-03-17T08:08:30.539Z,8.93
2023-03-17T08:11:04.990Z,10.60
2023-03-17T08:13:32.694Z,9.20
2023-03-17T08:15:59.368Z,9.03
2023-03-17T08:18:26.289Z,8.37
2023-03-17T08:20:52.998Z,10.80
2023-03-17T08:23:20.611Z,9.37
2023-03-17T08:25:48.695Z,10.17
2023-03-17T08:28:18.271Z,11.17
2023-03-17T08:30:50.391Z,7.80
2023-03-17T08:33:17.885Z,9.57
2023-03-17T08:35:45.035Z,8.53
2023-03-17T08:38:12.262Z,8.30
2023-03-17T08:40:39.924Z,7.20
2023-03-17T08:43:07.647Z,9.53
2023-03-17T08:45:34.741Z,8.07
2023-03-17T08:48:01.768Z,10.73
2023-03-17T08:50:29.735Z,7.67
2023-03-17T08:52:57.006Z,8.23
2023-03-17T08:55:24.307Z,8.03
2023-03-17T08:57:51.151Z,6.87
2023-03-17T09:00:20.513Z,6.40
2023-03-17T09:02:48.218Z,5.77
2023-03-17T09:05:16.972Z,6.83
2023-03-17T09:07:43.863Z,19.23
2023-03-17T09:10:12.493Z,5.47
2023-03-17T09:12:39.208Z,6.90
2023-03-17T09:15:07.612Z,4.67
2023-03-17T09:17:34.645Z,7.17
2023-03-17T09:20:01.234Z,6.17
2023-03-17T09:22:27.798Z,6.47
2023-03-17T09:24:54.402Z,6.03
2023-03-17T09:27:21.272Z,7.93
2023-03-17T09:29:47.875Z,9.27
2023-03-17T09:32:16.188Z,5.43
2023-03-17T09:34:42.871Z,6.33
2023-03-17T09:37:09.729Z,4.73
2023-03-17T09:39:36.410Z,5.70
2023-03-17T09:42:14.994Z,7.50
2023-03-17T09:44:57.126Z,9.90
2023-03-17T09:48:01.124Z,7.77
2023-03-17T09:50:53.558Z,8.67
2023-03-17T09:53:34.590Z,7.40
2023-03-17T09:56:08.317Z,7.17
2023-03-17T09:58:37.215Z,10.00
2023-03-17T10:01:05.365Z,7.73
2023-03-17T10:03:32.955Z,11.07
2023-03-17T10:06:15.143Z,5.70
2023-03-17T10:08:51.185Z,7.97
2023-03-17T10:11:23.383Z,7.70
2023-03-17T10:14:08.359Z,5.07
2023-03-17T10:17:00.349Z,5.27
2023-03-17T10:19:40.902Z,6.60
2023-03-17T10:22:16.013Z,4.53
2023-03-17T10:24:48.894Z,8.60
2023-03-17T10:27:16.679Z,8.00
2023-03-17T10:29:43.533Z,6.17
2023-03-17T10:32:13.057Z,6.63
2023-03-17T10:34:41.473Z,5.67
2023-03-17T10:37:13.951Z,7.50
2023-03-17T10:39:52.938Z,6.87
2023-03-17T10:42:29.069Z,5.65
2023-03-17T10:45:17.357Z,8.13
2023-03-17T10:47:50.140Z,8.00
2023-03-17T10:50:40.972Z,5.30
2023-03-17T10:53:18.178Z,4.07
2023-03-17T10:55:52.797Z,7.43
2023-03-17T10:58:28.697Z,3.90
2023-03-17T11:01:16.325Z,6.50
2023-03-17T11:03:43.096Z,5.30
2023-03-17T11:06:12.796Z,5.03
2023-03-17T11:08:51.342Z,10.23
2023-03-17T11:11:30.745Z,5.23
2023-03-17T11:14:16.139Z,4.33
2023-03-17T11:17:00.921Z,5.63
2023-03-17T11:19:45.272Z,6.67
2023-03-17T11:22:22.325Z,4.93
2023-03-17T11:25:27.125Z,7.43
2023-03-17T11:28:16.175Z,3.23
2023-03-17T11:31:15.416Z,4.57
2023-03-17T11:34:08.939Z,4.00
2023-03-17T11:36:56.491Z,5.53
2023-03-17T11:39:27.732Z,6.20
2023-03-17T11:42:18.012Z,2.87
2023-03-17T11:45:09.705Z,6.00
2023-03-17T11:47:59.324Z,3.20
2023-03-17T11:50:50.379Z,4.97
2023-03-17T11:53:41.236Z,3.57
2023-03-17T11:56:21.073Z,4.17
2023-03-17T11:59:00.432Z,4.97
2023-03-17T12:01:32.380Z,3.30
2023-03-17T12:04:20.327Z,5.30
2023-03-17T12:06:52.248Z,4.00
2023-03-17T12:09:31.633Z,3.87
2023-03-17T12:11:59.441Z,2.70
2023-03-17T12:14:30.640Z,3.50
2023-03-17T12:17:16.054Z,4.37
2023-03-17T12:19:57.128Z,3.27
2023-03-17T12:22:52.437Z,3.03
2023-03-17T12:25:24.585Z,2.90
2023-03-17T12:28:10.948Z,4.17
2023-03-17T12:30:52.450Z,4.15
2023-03-17T12:33:31.038Z,4.03
2023-03-17T12:35:59.232Z,3.07
2023-03-17T12:38:36.705Z,4.30
2023-03-17T12:41:42.649Z,3.30
2023-03-17T12:45:05.164Z,3.67
2023-03-17T12:48:14.665Z,5.90
2023-03-17T12:50:57.219Z,6.23
2023-03-17T12:53:33.257Z,4.17
2023-03-17T12:56:16.403Z,5.03
2023-03-17T12:58:46.418Z,2.77
2023-03-17T13:01:34.416Z,4.60
2023-03-17T13:04:26.460Z,2.83
2023-03-17T13:06:57.603Z,5.20
2023-03-17T13:09:32.978Z,3.10
2023-03-17T13:12:01.223Z,4.40
2023-03-17T13:14:44.655Z,3.70
2023-03-17T13:17:20.228Z,4.13
2023-03-17T13:20:04.363Z,2.60
2023-03-17T13:22:53.089Z,4.77
2023-03-17T13:25:41.734Z,3.67
2023-03-17T13:28:14.860Z,3.03
2023-03-17T13:31:25.040Z,3.13
2023-03-17T13:33:54.748Z,3.13
2023-03-17T13:36:36.351Z,2.10
2023-03-17T13:39:38.187Z,3.50
2023-03-17T13:42:35.441Z,2.83
2023-03-17T13:45:38.122Z,3.40
2023-03-17T13:48:32.938Z,5.13
2023-03-17T13:51:22.041Z,4.73
2023-03-17T13:53:53.966Z,5.27
2023-03-17T13:56:43.605Z,2.17
2023-03-17T13:59:16.829Z,2.47
2023-03-17T14:01:52.029Z,3.63
2023-03-17T14:04:26.436Z,3.07
2023-03-17T14:06:56.712Z,5.50
2023-03-17T14:09:32.280Z,3.57
2023-03-17T14:12:03.146Z,2.67
2023-03-17T14:14:43.955Z,2.73
2023-03-17T14:17:16.382Z,5.37
2023-03-17T14:20:06.211Z,4.17
2023-03-17T14:22:32.991Z,2.43
2023-03-17T14:25:01.747Z,3.30
2023-03-17T14:27:32.567Z,4.17
2023-03-17T14:30:09.688Z,3.77
2023-03-17T14:32:36.480Z,3.37
2023-03-17T14:35:03.205Z,2.50
2023-03-17T14:37:29.916Z,6.13
2023-03-17T14:39:58.105Z,2.93
2023-03-17T14:42:30.460Z,2.90
2023-03-17T14:45:06.526Z,2.20
2023-03-17T14:47:39.669Z,6.33
2023-03-17T14:50:16.664Z,3.23
2023-03-17T14:52:43.922Z,3.37
2023-03-17T14:55:15.514Z,2.70
2023-03-17T14:57:42.741Z,3.23
2023-03-17T15:00:34.250Z,4.50
2023-03-17T15:03:03.672Z,4.17
2023-03-17T15:05:40.666Z,6.33
2023-03-17T15:08:31.125Z,5.93
2023-03-17T15:10:59.888Z,3.07
2023-03-17T15:13:28.157Z,3.47
2023-03-17T15:15:55.993Z,2.67
2023-03-17T15:18:23.562Z,3.60
2023-03-17T15:20:50.311Z,2.77
2023-03-17T15:23:18.382Z,4.33
2023-03-17T15:25:48.488Z,4.60
2023-03-17T15:28:18.197Z,3.57
2023-03-17T15:30:48.695Z,7.40
2023-03-17T15:33:30.571Z,2.33
2023-03-17T15:35:59.935Z,3.40
2023-03-17T15:38:26.734Z,4.00
2023-03-17T15:40:53.988Z,5.57
2023-03-17T15:43:22.108Z,3.97
2023-03-17T15:45:58.051Z,2.60
2023-03-17T15:48:31.361Z,4.13
2023-03-17T15:51:00.020Z,3.93
2023-03-17T15:53:27.305Z,4.37
2023-03-17T15:55:54.157Z,4.60
2023-03-17T15:58:20.884Z,4.40
2023-03-17T16:00:52.665Z,4.03
2023-03-17T16:03:29.401Z,5.40
2023-03-17T16:05:56.036Z,3.50
2023-03-17T16:08:23.116Z,4.50
2023-03-17T16:10:49.725Z,2.70
2023-03-17T16:13:16.771Z,2.10
2023-03-17T16:15:47.167Z,7.23
2023-03-17T16:18:16.760Z,2.67
2023-03-17T16:20:46.523Z,4.00
2023-03-17T16:23:16.917Z,3.37
2023-03-17T16:25:44.158Z,3.20
2023-03-17T16:28:22.186Z,7.73
2023-03-17T16:30:51.206Z,6.10
2023-03-17T16:33:27.422Z,6.57
2023-03-17T16:35:55.770Z,8.93
2023-03-17T16:38:24.652Z,4.70
2023-03-17T16:40:54.528Z,5.50
2023-03-17T16:43:25.656Z,4.93
2023-03-17T16:45:54.905Z,4.13
2023-03-17T16:48:21.726Z,6.17
2023-03-17T16:50:48.784Z,6.57
2023-03-17T16:53:15.366Z,5.75
2023-03-17T16:55:42.375Z,6.97
2023-03-17T16:58:21.445Z,8.23
2023-03-17T17:00:49.349Z,5.43
2023-03-17T17:03:16.002Z,6.57
2023-03-17T17:05:43.938Z,4.00
2023-03-17T17:08:11.038Z,6.07
2023-03-17T17:10:38.839Z,4.37
2023-03-17T17:13:07.828Z,4.03
2023-03-17T17:15:36.364Z,9.87
2023-03-17T17:18:12.541Z,10.63
2023-03-17T17:20:41.521Z,10.27
2023-03-17T17:23:12.657Z,9.93
2023-03-17T17:25:39.582Z,11.80
2023-03-17T17:28:06.374Z,6.33
2023-03-17T17:30:33.929Z,6.47
2023-03-17T17:33:02.243Z,6.87
2023-03-17T17:35:32.790Z,4.97
2023-03-17T17:38:01.312Z,6.13
2023-03-17T17:40:29.663Z,11.73
2023-03-17T17:42:58.001Z,7.10
2023-03-17T17:45:26.377Z,6.70
2023-03-17T17:47:54.463Z,4.53
2023-03-17T17:50:24.582Z,5.20
2023-03-17T17:52:51.205Z,5.77
2023-03-17T17:55:18.129Z,8.90
2023-03-17T17:57:44.720Z,5.17
2023-03-17T18:00:17.042Z,8.77
2023-03-17T18:02:44.381Z,5.90
2023-03-17T18:05:12.319Z,6.37
2023-03-17T18:07:39.703Z,6.53
2023-03-17T18:10:07.848Z,7.67
2023-03-17T18:12:35.755Z,6.13
2023-03-17T18:15:06.023Z,6.90
2023-03-17T18:17:36.079Z,6.80
2023-03-17T18:20:06.603Z,6.83
2023-03-17T18:22:36.541Z,9.63
2023-03-17T18:25:09.332Z,9.60
2023-03-17T18:27:40.354Z,7.97
2023-03-17T18:30:11.899Z,8.07
2023-03-17T18:32:42.625Z,6.57
2023-03-17T18:35:15.706Z,7.07
2023-03-17T18:37:45.783Z,7.53
2023-03-17T18:40:18.754Z,7.63
2023-03-17T18:42:49.542Z,10.43
2023-03-17T18:45:19.695Z,7.60
2023-03-17T18:47:49.583Z,10.20
2023-03-17T18:50:21.755Z,6.20
2023-03-17T18:52:51.558Z,10.03
2023-03-17T18:55:21.585Z,8.27
2023-03-17T18:57:51.914Z,6.27
2023-03-17T19:00:20.360Z,8.07
2023-03-17T19:02:50.415Z,5.57
2023-03-17T19:05:20.747Z,7.93
2023-03-17T19:07:50.809Z,6.60
2023-03-17T19:10:20.070Z,4.77
2023-03-17T19:12:47.465Z,6.00
2023-03-17T19:15:14.744Z,5.73
2023-03-17T19:17:42.018Z,6.22
2023-03-17T19:20:09.995Z,4.27
2023-03-17T19:22:37.109Z,4.10
2023-03-17T19:25:04.490Z,4.83
2023-03-17T19:27:31.753Z,5.03
2023-03-17T19:29:58.862Z,7.03
2023-03-17T19:32:25.893Z,6.00
2023-03-17T19:34:53.038Z,7.17
2023-03-17T19:37:20.100Z,7.53
2023-03-17T19:39:46.936Z,10.83
2023-03-17T19:42:13.643Z,6.00
2023-03-17T19:44:40.575Z,9.20
2023-03-17T19:47:08.324Z,9.20
2023-03-17T19:49:36.546Z,9.93
2023-03-17T19:52:07.514Z,9.17
2023-03-17T19:54:34.657Z,10.33
2023-03-17T19:57:01.291Z,11.93
2023-03-17T19:59:27.900Z,47.70
2023-03-17T20:01:55.428Z,36.70
2023-03-17T20:04:23.112Z,30.47
2023-03-17T20:06:55.105Z,24.67
2023-03-17T20:09:27.109Z,26.40
2023-03-17T20:11:56.215Z,21.73
2023-03-17T20:14:23.497Z,16.40
2023-03-17T20:16:51.776Z,10.53
2023-03-17T20:19:18.795Z,9.33
2023-03-17T20:21:46.071Z,8.83
2023-03-17T20:24:14.634Z,12.33
2023-03-17T20:26:43.295Z,11.00
2023-03-17T20:29:12.550Z,11.97
2023-03-17T20:31:39.859Z,7.17
2023-03-17T20:34:07.778Z,6.47
2023-03-17T20:36:34.964Z,7.80
2023-03-17T20:39:01.985Z,7.00
2023-03-17T20:41:29.144Z,6.87
2023-03-17T20:43:56.372Z,7.20
2023-03-17T20:46:24.422Z,7.53
2023-03-17T20:48:58.239Z,11.00
2023-03-17T20:51:25.895Z,11.83
2023-03-17T20:53:53.651Z,11.50
2023-03-17T20:56:22.301Z,7.37
2023-03-17T20:58:49.504Z,12.63
2023-03-17T21:01:20.781Z,6.10
2023-03-17T21:03:48.455Z,8.07
2023-03-17T21:06:15.514Z,6.73
2023-03-17T21:08:42.530Z,9.27
2023-03-17T21:11:12.315Z,13.57
2023-03-17T21:13:39.987Z,9.80
2023-03-17T21:16:07.407Z,8.17
2023-03-17T21:18:34.429Z,8.67
2023-03-17T21:21:01.472Z,18.07
2023-03-17T21:23:28.460Z,7.57
2023-03-17T21:25:56.303Z,10.32
2023-03-17T21:28:23.761Z,7.33
2023-03-17T21:30:51.185Z,7.50
2023-03-17T21:33:18.336Z,11.03
2023-03-17T21:35:45.375Z,6.57
2023-03-17T21:38:12.410Z,6.67
2023-03-17T21:40:39.538Z,8.37
2023-03-17T21:43:06.594Z,6.83
2023-03-17T21:45:33.633Z,6.43
2023-03-17T21:48:00.696Z,8.40
2023-03-17T21:50:27.750Z,6.30
2023-03-17T21:52:54.992Z,7.13
2023-03-17T21:55:22.005Z,7.37
2023-03-17T21:57:49.154Z,8.60
2023-03-17T22:00:17.053Z,6.83
2023-03-17T22:02:44.907Z,6.97
2023-03-17T22:05:11.974Z,8.07
2023-03-17T22:07:40.911Z,7.83
2023-03-17T22:10:08.092Z,10.67
2023-03-17T22:12:35.692Z,8.97
2023-03-17T22:15:03.996Z,8.47
2023-03-17T22:17:31.070Z,6.97
2023-03-17T22:19:58.075Z,7.50
2023-03-17T22:22:25.435Z,9.03
2023-03-17T22:24:52.467Z,6.63
2023-03-17T22:27:19.553Z,8.23
2023-03-17T22:29:46.680Z,8.17
2023-03-17T22:32:13.855Z,8.43
2023-03-17T22:34:40.937Z,7.90
2023-03-17T22:37:08.097Z,7.10
2023-03-17T22:39:35.310Z,10.70
2023-03-17T22:42:02.774Z,11.33
2023-03-17T22:44:29.770Z,8.03
2023-03-17T22:46:56.928Z,10.07
2023-03-17T22:49:24.011Z,8.77
2023-03-17T22:51:51.052Z,7.97
2023-03-17T22:54:18.763Z,8.20
2023-03-17T22:56:45.974Z,9.77
2023-03-17T22:59:12.955Z,7.27
2023-03-17T23:01:40.225Z,6.87
2023-03-17T23:04:07.874Z,6.33
2023-03-17T23:06:35.202Z,6.33
2023-03-17T23:09:02.649Z,5.17
2023-03-17T23:11:29.679Z,7.20
2023-03-17T23:13:56.888Z,5.33
2023-03-17T23:16:24.020Z,5.00
2023-03-17T23:18:51.378Z,5.53
2023-03-17T23:21:45.381Z,4.87
2023-03-17T23:24:12.390Z,3.43
2023-03-17T23:26:38.970Z,4.07
2023-03-17T23:29:08.419Z,5.73
2023-03-17T23:31:36.880Z,4.70
2023-03-17T23:34:04.741Z,4.13
2023-03-17T23:36:31.328Z,5.17
2023-03-17T23:38:58.058Z,4.07
2023-03-17T23:41:24.773Z,4.03
2023-03-17T23:43:51.561Z,2.90
2023-03-17T23:46:18.925Z,3.50
2023-03-17T23:48:45.566Z,4.27
2023-03-17T23:51:12.846Z,3.43
2023-03-17T23:53:40.282Z,3.23
2023-03-17T23:56:07.600Z,3.93
2023-03-17T23:58:34.222Z,6.37
